createdAt,value
2018-11-01T00:02:07.079Z,79.50
2018-11-01T00:04:36.283Z,79.40
2018-11-01T00:07:05.986Z,79.10
2018-11-01T00:09:35.158Z,79.00
2018-11-01T00:12:04.325Z,78.90
2018-11-01T00:14:33.563Z,79.50
2018-11-01T00:17:02.757Z,78.60
2018-11-01T00:19:32.004Z,78.50
2018-11-01T14:24:59.159Z,76.50
2018-11-01T14:27:43.181Z,76.60
2018-11-01T14:30:34.481Z,77.20
2018-11-01T14:33:03.701Z,77.60
2018-11-01T14:35:40.709Z,78.20
2018-11-01T14:38:10.041Z,78.50
2018-11-01T14:40:46.549Z,79.70
2018-11-01T14:43:28.089Z,79.30
2018-11-01T14:45:57.348Z,79.80
2018-11-01T14:50:06.245Z,79.90
2018-11-01T14:52:35.877Z,80.30
2018-11-01T14:55:27.255Z,80.60
2018-11-01T14:57:57.423Z,81.10
2018-11-01T15:00:25.122Z,81.70
2018-11-01T15:02:54.382Z,81.90
2018-11-01T15:06:09.708Z,82.20
2018-11-01T15:09:18.202Z,82.70
2018-11-01T15:11:47.417Z,82.90
2018-11-01T15:14:16.628Z,84.00
2018-11-01T15:16:53.115Z,83.60
2018-11-01T15:19:24.503Z,84.00
2018-11-01T15:21:53.555Z,84.50
2018-11-01T15:24:30.584Z,85.00
2018-11-01T15:27:15.079Z,85.30
2018-11-01T15:29:57.838Z,85.80
2018-11-01T15:32:27.634Z,86.10
2018-11-01T15:35:14.173Z,87.00
2018-11-01T15:38:05.540Z,87.10
2018-11-01T15:40:42.056Z,87.70
2018-11-01T15:43:19.863Z,87.90
2018-11-01T15:45:49.105Z,88.60
2018-11-01T15:48:18.416Z,88.90
2018-11-01T15:50:47.680Z,89.10
2018-11-01T15:53:39.026Z,89.40
2018-11-01T15:56:08.675Z,89.50
2018-11-01T15:58:45.514Z,90.00
2018-11-01T16:01:35.276Z,90.20
2018-11-01T16:04:05.744Z,90.20
2018-11-01T16:07:04.904Z,90.40
2018-11-01T16:09:35.382Z,90.60
2018-11-01T16:12:27.143Z,90.60
2018-11-01T16:14:56.399Z,90.90
2018-11-01T16:18:06.751Z,90.90
2018-11-01T16:20:43.927Z,91.00
2018-11-01T16:23:13.370Z,91.10
2018-11-01T16:26:04.715Z,91.10
2018-11-01T16:28:33.993Z,91.20
2018-11-01T16:31:18.726Z,91.20
2018-11-01T16:34:01.894Z,91.20
2018-11-01T16:36:53.283Z,91.20
2018-11-01T16:39:29.508Z,91.30
2018-11-01T16:42:06.975Z,91.30
2018-11-01T16:44:48.884Z,91.30
2018-11-01T16:47:26.710Z,91.30
2018-11-01T16:49:55.930Z,91.40
2018-11-01T16:52:33.953Z,91.50
2018-11-01T16:55:03.256Z,91.50
2018-11-01T16:57:55.855Z,91.50
2018-11-01T17:00:26.178Z,91.60
2018-11-01T17:02:58.390Z,91.60
2018-11-01T17:05:27.627Z,91.60
2018-11-01T17:07:56.879Z,91.80
2018-11-01T17:10:34.253Z,91.80
2018-11-01T17:13:10.897Z,91.90
2018-11-01T17:15:40.154Z,92.00
2018-11-01T17:18:23.892Z,92.10
2018-11-01T17:21:08.086Z,92.20
2018-11-01T17:23:37.326Z,92.20
2018-11-01T17:26:06.556Z,92.40
2018-11-01T17:28:43.177Z,92.30
2018-11-01T17:31:12.409Z,92.40
2018-11-01T17:33:56.502Z,92.20
2018-11-01T17:36:33.342Z,92.30
2018-11-01T17:39:10.428Z,92.20
2018-11-01T17:41:48.265Z,92.30
2018-11-01T17:44:32.818Z,92.30
2018-11-01T17:47:22.697Z,92.30
2018-11-01T17:50:18.595Z,92.30
2018-11-01T17:52:49.439Z,92.30
2018-11-01T17:56:00.409Z,92.30
2018-11-01T17:58:43.343Z,92.20
2018-11-01T18:01:24.199Z,92.50
2018-11-01T18:04:07.797Z,92.20
2018-11-01T18:06:44.195Z,92.20
2018-11-01T18:09:21.935Z,92.10
2018-11-01T18:11:51.142Z,92.10
2018-11-01T18:14:42.736Z,92.10
2018-11-01T18:17:35.127Z,92.00
2018-11-01T18:20:07.427Z,91.80
2018-11-01T18:22:58.306Z,91.80
2018-11-01T18:25:28.668Z,91.80
2018-11-01T18:28:20.080Z,91.80
2018-11-01T18:30:56.600Z,91.70
2018-11-01T18:33:50.008Z,91.60
2018-11-01T18:36:27.293Z,91.60
2018-11-01T18:39:14.586Z,91.50
2018-11-01T18:42:01.839Z,91.50
2018-11-01T18:44:38.433Z,91.50
2018-11-01T18:47:07.667Z,91.50
2018-11-01T18:49:59.749Z,91.50
2018-11-01T18:52:28.959Z,91.50
2018-11-01T18:54:58.678Z,91.50
2018-11-01T18:57:27.927Z,91.50
2018-11-01T19:00:04.751Z,91.50
2018-11-01T19:03:01.585Z,91.40
2018-11-01T19:05:54.535Z,91.30
2018-11-01T19:08:39.565Z,91.30
2018-11-01T19:11:37.682Z,91.20
2018-11-01T19:14:21.596Z,91.20
2018-11-01T19:16:58.561Z,91.30
2018-11-01T19:19:50.231Z,91.20
2018-11-01T19:22:53.209Z,91.20
2018-11-01T19:25:22.483Z,91.20
2018-11-01T19:27:51.719Z,91.20
2018-11-01T19:30:20.976Z,91.20
2018-11-01T19:32:50.216Z,91.20
2018-11-01T19:35:19.503Z,91.10
2018-11-01T19:38:21.753Z,91.10
2018-11-01T19:40:51.010Z,91.00
2018-11-01T19:43:27.841Z,90.90
2018-11-01T19:46:04.984Z,90.90
2018-11-01T19:48:51.354Z,90.80
2018-11-01T19:51:35.466Z,90.90
2018-11-01T19:54:17.168Z,90.90
2018-11-01T19:56:53.870Z,90.80
2018-11-01T19:59:32.486Z,90.60
2018-11-01T20:02:01.742Z,90.70
2018-11-01T20:04:46.089Z,90.50
2018-11-01T20:07:43.203Z,90.50
2018-11-01T20:10:27.437Z,90.50
2018-11-01T20:12:56.657Z,90.60
2018-11-01T20:15:49.170Z,90.60
2018-11-01T20:18:26.709Z,90.50
2018-11-01T20:21:17.489Z,90.50
2018-11-01T20:24:17.127Z,90.50
2018-11-01T20:26:53.603Z,90.40
2018-11-01T20:29:22.959Z,90.40
2018-11-01T20:31:52.355Z,90.30
2018-11-01T20:34:36.566Z,90.20
2018-11-01T20:37:05.940Z,90.10
2018-11-01T20:39:35.211Z,90.10
2018-11-01T20:42:04.652Z,90.00
2018-11-01T20:44:41.215Z,89.90
2018-11-01T20:47:23.177Z,89.90
2018-11-01T20:50:00.255Z,89.70
2018-11-01T20:52:50.179Z,89.70
2018-11-01T20:55:34.774Z,89.60
2018-11-01T20:58:25.992Z,89.50
2018-11-01T21:01:02.947Z,89.50
2018-11-01T21:03:40.353Z,89.40
2018-11-01T21:06:16.887Z,89.40
2018-11-01T21:08:46.114Z,89.30
2018-11-01T21:11:15.361Z,89.20
2018-11-01T21:14:12.013Z,89.00
2018-11-01T21:16:41.277Z,88.90
2018-11-01T21:19:17.814Z,88.60
2018-11-01T21:22:08.834Z,88.50
2018-11-01T21:25:12.902Z,88.50
2018-11-01T21:27:42.506Z,88.20
2018-11-01T21:30:47.500Z,88.00
2018-11-01T21:33:24.979Z,87.80
2018-11-01T21:36:09.411Z,87.60
2018-11-01T21:38:39.795Z,87.50
2018-11-01T21:41:09.375Z,87.20
2018-11-01T21:43:52.309Z,87.30
2018-11-01T21:47:16.891Z,87.50
2018-11-01T21:49:46.130Z,87.60
2018-11-01T21:52:45.224Z,87.40
2018-11-01T21:55:43.321Z,87.60
2018-11-01T21:58:13.812Z,87.50
2018-11-01T22:00:52.772Z,87.70
2018-11-01T22:03:51.421Z,87.60
2018-11-01T22:06:38.842Z,87.60
2018-11-01T22:09:32.176Z,87.70
2018-11-01T22:12:09.622Z,87.60
2018-11-01T22:14:49.518Z,87.60
2018-11-01T22:17:30.524Z,87.70
2018-11-01T22:20:13.257Z,87.50
2018-11-01T22:22:54.066Z,87.30
2018-11-01T22:25:23.307Z,87.10
2018-11-01T22:28:08.276Z,87.10
2018-11-01T22:30:44.682Z,87.00
2018-11-01T22:33:15.547Z,86.90
2018-11-01T22:35:44.805Z,87.10
2018-11-01T22:38:21.297Z,87.10
2018-11-01T22:40:50.475Z,87.00
2018-11-01T22:43:42.366Z,87.10
2018-11-01T22:46:25.851Z,87.10
2018-11-01T22:49:09.810Z,86.80
2018-11-01T22:51:51.983Z,86.90
2018-11-01T22:54:28.874Z,87.00
2018-11-01T22:57:21.965Z,87.00
2018-11-01T22:59:51.340Z,86.70
2018-11-01T23:02:35.311Z,86.80
2018-11-01T23:05:04.921Z,86.80
2018-11-01T23:07:56.373Z,86.90
2018-11-01T23:10:33.351Z,86.70
2018-11-01T23:13:30.404Z,86.60
2018-11-01T23:16:07.416Z,86.70
2018-11-01T23:18:37.649Z,86.50
2018-11-01T23:21:14.070Z,86.40
2018-11-01T23:23:58.861Z,86.40
2018-11-01T23:26:35.766Z,86.50
2018-11-01T23:29:12.964Z,86.70
2018-11-01T23:31:49.985Z,86.60
2018-11-01T23:34:26.473Z,86.50
2018-11-01T23:37:01.098Z,86.50
2018-11-01T23:39:35.670Z,86.70
2018-11-01T23:42:17.265Z,86.80
2018-11-01T23:44:51.819Z,87.00
2018-11-01T23:47:41.513Z,87.10
2018-11-01T23:50:54.713Z,87.40
2018-11-01T23:53:57.031Z,87.60
2018-11-01T23:56:41.009Z,87.70
2018-11-01T23:59:11.206Z,88.00
